Time;durP1;ratioP1;P1;durP2;ratioP2;P2;SDS_P1;SDS_P2;PMS_P1;PMS_P2;Temp;Humidity;BMP_temperature;BMP_pressure;BME280_temperature;BME280_humidity;BME280_pressure;Samples;Min_cycle;Max_cycle;Signal;HPM_P1;HPM_P2
2022/11/14 00:00:27;;;;;;;124.72;61.45;;;;;;;6.37;71.03;96367.44;5032655;28;20132;-77
2022/11/14 00:02:53;;;;;;;121.95;58.15;;;;;;;6.40;71.05;96362.56;5038926;28;20056;-77
2022/11/14 00:05:19;;;;;;;128.45;59.33;;;;;;;6.05;70.90;96317.50;5021324;28;20053;-77
2022/11/14 00:07:46;;;;;;;131.35;60.35;;;;;;;5.80;71.04;96275.34;5038997;28;20127;-78
2022/11/14 00:10:13;;;;;;;130.18;59.95;;;;;;;5.47;70.53;96216.16;5044334;28;20048;-77
2022/11/14 00:12:41;;;;;;;129.02;59.17;;;;;;;6.42;70.74;96368.41;5049645;28;20049;-77
2022/11/14 00:15:07;;;;;;;126.30;58.22;;;;;;;6.40;70.92;96370.47;5054715;28;20059;-77
2022/11/14 00:17:32;;;;;;;119.20;60.78;;;;;;;6.02;70.32;96310.03;5057053;28;20165;-77
2022/11/14 00:19:57;;;;;;;128.10;61.13;;;;;;;6.30;70.53;96351.72;5041251;28;20049;-77
2022/11/14 00:22:23;;;;;;;124.50;62.03;;;;;;;6.44;70.64;96365.56;5039572;28;20590;-77
2022/11/14 00:24:49;;;;;;;126.13;58.78;;;;;;;6.40;70.11;96367.03;5039504;28;20060;-77
2022/11/14 00:27:15;;;;;;;134.65;64.30;;;;;;;5.38;70.75;96203.28;5055969;28;20828;-76
2022/11/14 00:29:40;;;;;;;129.18;61.72;;;;;;;5.57;70.73;96242.81;5054746;28;20110;-76
2022/11/14 00:32:06;;;;;;;132.50;64.50;;;;;;;6.37;70.22;96370.88;5040503;28;20415;-77
2022/11/14 00:34:33;;;;;;;135.02;66.13;;;;;;;6.36;69.83;96371.09;5033624;28;20154;-77
2022/11/14 00:36:58;;;;;;;146.18;65.30;;;;;;;5.91;70.15;96305.47;5029457;28;20495;-77
2022/11/14 00:39:24;;;;;;;136.98;66.50;;;;;;;5.95;69.77;96324.28;5057347;28;20056;-79
2022/11/14 00:41:49;;;;;;;141.52;65.20;;;;;;;6.26;70.38;96371.59;5046357;28;20053;-77
2022/11/14 00:44:14;;;;;;;128.00;60.83;;;;;;;6.24;70.34;96372.84;5021932;28;20067;-77
2022/11/14 00:46:40;;;;;;;123.38;58.15;;;;;;;6.19;69.63;96374.28;5040917;28;20850;-76
2022/11/14 00:49:05;;;;;;;123.82;56.90;;;;;;;5.86;70.01;96333.44;5054000;28;20045;-77
2022/11/14 00:51:31;;;;;;;117.78;56.85;;;;;;;5.96;70.33;96346.94;5024922;28;20048;-77
2022/11/14 00:53:56;;;;;;;126.22;55.40;;;;;;;4.92;69.85;96182.59;5039812;28;20052;-77
2022/11/14 00:56:21;;;;;;;118.47;53.60;;;;;;;5.95;70.17;96342.72;5039437;28;20140;-77
2022/11/14 00:58:47;;;;;;;116.72;53.75;;;;;;;5.57;70.01;96287.53;5052969;28;20502;-77
2022/11/14 01:01:12;;;;;;;108.13;52.70;;;;;;;5.61;70.11;96299.22;5040647;28;20076;-77
2022/11/14 01:03:38;;;;;;;108.55;51.40;;;;;;;5.47;69.77;96272.22;5037803;28;20260;-77
2022/11/14 01:06:10;;;;;;;99.88;48.47;;;;;;;5.92;70.67;96349.22;5023305;28;20048;-77
2022/11/14 01:08:35;;;;;;;103.10;48.38;;;;;;;6.04;70.46;96363.28;5056526;28;20478;-77
2022/11/14 01:11:09;;;;;;;107.47;47.22;;;;;;;6.06;70.27;96360.44;5038647;28;20056;-77
2022/11/14 01:13:34;;;;;;;100.15;45.78;;;;;;;5.73;70.64;96313.28;5047869;28;20697;-77
2022/11/14 01:16:00;;;;;;;105.30;47.85;;;;;;;5.90;71.39;96334.66;5047672;28;20060;-77
2022/11/14 01:18:26;;;;;;;105.07;46.97;;;;;;;5.53;71.51;96275.81;5046022;28;20536;-77
2022/11/14 01:20:52;;;;;;;99.82;46.60;;;;;;;6.08;71.77;96355.78;5049950;28;20040;-77
2022/11/14 01:23:17;;;;;;;105.07;47.53;;;;;;;6.08;72.09;96353.13;5043594;28;20041;-77
2022/11/14 01:25:43;;;;;;;117.68;56.83;;;;;;;6.08;71.65;96351.31;5034783;28;20056;-77
2022/11/14 01:28:17;;;;;;;128.68;58.53;;;;;;;6.09;71.21;96346.84;5041686;28;20037;-77
2022/11/14 01:30:44;;;;;;;124.90;58.40;;;;;;;5.85;70.95;96311.59;5067965;28;20036;-78
2022/11/14 01:33:09;;;;;;;135.68;59.67;;;;;;;6.07;71.69;96343.63;5055505;28;20123;-78
2022/11/14 01:35:37;;;;;;;146.95;68.85;;;;;;;6.08;71.03;96350.50;5040977;28;20123;-78
2022/11/14 01:38:03;;;;;;;137.68;64.20;;;;;;;6.08;70.53;96342.59;5039710;28;20109;-78
2022/11/14 01:40:29;;;;;;;148.23;66.50;;;;;;;5.81;70.42;96299.84;5039665;28;20068;-78
2022/11/14 01:43:10;;;;;;;132.77;60.35;;;;;;;6.06;70.78;96334.91;5045527;28;20044;-78
2022/11/14 01:45:59;;;;;;;121.07;54.53;;;;;;;6.02;70.89;96328.47;5057263;28;20040;-78
2022/11/14 01:48:48;;;;;;;142.95;60.28;;;;;;;6.06;71.60;96328.84;5043922;28;20091;-78
2022/11/14 01:51:20;;;;;;;136.38;54.45;;;;;;;5.83;73.70;96316.25;5052719;28;20043;-78
2022/11/14 01:53:48;;;;;;;154.05;64.60;;;;;;;5.28;72.20;96254.75;5059471;28;20048;-78
2022/11/14 01:56:18;;;;;;;141.95;58.00;;;;;;;5.54;73.59;96293.22;5060460;28;20541;-78
2022/11/14 01:58:49;;;;;;;140.45;60.20;;;;;;;5.23;72.84;96212.50;5041777;28;20067;-78
2022/11/14 02:01:14;;;;;;;163.88;55.08;;;;;;;5.36;73.59;96249.22;5055074;28;20095;-78
2022/11/14 02:03:43;;;;;;;142.32;56.28;;;;;;;5.68;74.04;96299.97;5033276;28;20504;-78
2022/11/14 02:06:12;;;;;;;142.00;58.05;;;;;;;5.73;74.02;96290.41;5058378;28;20056;-78
2022/11/14 02:08:38;;;;;;;134.32;58.10;;;;;;;5.96;72.67;96313.53;5049112;28;20518;-78
2022/11/14 02:11:03;;;;;;;141.60;52.80;;;;;;;5.99;73.35;96307.84;5044152;28;20044;-78
2022/11/14 02:13:28;;;;;;;138.23;54.47;;;;;;;5.78;72.75;96273.97;5043816;28;20080;-78
2022/11/14 02:15:54;;;;;;;164.85;55.42;;;;;;;5.15;73.31;96171.50;5025594;28;20048;-78
2022/11/14 02:18:20;;;;;;;148.35;59.45;;;;;;;5.54;73.63;96245.84;5058887;28;20052;-78
2022/11/14 02:20:45;;;;;;;166.20;55.67;;;;;;;5.54;73.73;96241.41;5060004;28;20059;-78
2022/11/14 02:23:11;;;;;;;137.55;55.15;;;;;;;4.92;73.29;96140.56;5038394;28;20047;-78
2022/11/14 02:25:37;;;;;;;141.75;49.97;;;;;;;5.97;73.96;96304.59;5041737;28;20048;-78
2022/11/14 02:28:06;;;;;;;167.98;51.95;;;;;;;5.97;73.34;96304.59;5026618;28;20043;-77
2022/11/14 02:30:32;;;;;;;136.35;50.10;;;;;;;5.63;73.79;96250.63;5031744;28;20094;-76
2022/11/14 02:32:57;;;;;;;126.22;50.50;;;;;;;5.70;73.68;96263.72;5055765;28;20025;-76
2022/11/14 02:35:22;;;;;;;120.28;48.17;;;;;;;5.76;74.24;96273.38;5048623;28;20036;-77
2022/11/14 02:37:49;;;;;;;107.53;44.88;;;;;;;5.93;74.46;96298.19;5059705;28;20476;-79
2022/11/14 02:40:15;;;;;;;107.03;46.08;;;;;;;5.08;74.81;96165.50;5058693;28;20041;-78
2022/11/14 02:42:40;;;;;;;114.13;46.67;;;;;;;5.51;74.40;96231.28;5033996;28;20048;-78
2022/11/14 02:45:06;;;;;;;105.72;43.95;;;;;;;5.44;74.34;96217.38;5035128;28;20040;-76
2022/11/14 02:47:32;;;;;;;100.07;42.22;;;;;;;5.66;74.33;96246.75;5048945;28;20044;-77
2022/11/14 02:49:57;;;;;;;120.93;43.97;;;;;;;5.47;74.80;96218.78;5037037;28;20082;-77
2022/11/14 02:52:23;;;;;;;112.30;44.20;;;;;;;5.67;74.54;96261.50;5045768;28;20886;-77
2022/11/14 02:54:48;;;;;;;134.90;45.67;;;;;;;5.78;75.19;96280.06;5026684;28;20147;-77
2022/11/14 02:57:13;;;;;;;107.93;45.40;;;;;;;5.94;74.97;96299.78;5072349;28;20390;-77
2022/11/14 02:59:39;;;;;;;104.05;45.78;;;;;;;5.77;75.38;96275.00;5025827;28;20049;-77
2022/11/14 03:02:04;;;;;;;105.60;42.60;;;;;;;5.88;74.48;96300.63;5044317;28;20040;-76
2022/11/14 03:04:29;;;;;;;113.70;46.28;;;;;;;5.86;74.45;96296.59;5044749;28;20040;-78
2022/11/14 03:06:55;;;;;;;115.35;43.45;;;;;;;5.63;74.26;96276.94;5027738;28;20601;-79
2022/11/14 03:09:20;;;;;;;106.13;44.15;;;;;;;5.80;74.40;96300.88;5038589;28;20229;-78
2022/11/14 03:11:46;;;;;;;111.35;45.42;;;;;;;5.76;74.29;96295.25;5026389;28;20040;-78
2022/11/14 03:14:11;;;;;;;107.55;44.33;;;;;;;5.16;73.90;96196.78;5031251;28;20506;-78
2022/11/14 03:16:37;;;;;;;107.65;45.20;;;;;;;5.44;74.71;96275.25;5059065;28;20044;-78
2022/11/14 03:19:02;;;;;;;99.60;43.38;;;;;;;5.47;75.27;96295.09;5033785;28;20044;-78
2022/11/14 03:21:28;;;;;;;109.45;46.38;;;;;;;5.37;74.26;96264.00;5025448;28;20420;-78
2022/11/14 03:23:53;;;;;;;107.25;46.65;;;;;;;5.65;74.50;96292.50;5053685;28;20044;-79
2022/11/14 03:26:19;;;;;;;115.97;47.28;;;;;;;5.56;74.24;96292.00;5059053;28;20041;-78
2022/11/14 03:28:44;;;;;;;110.53;47.53;;;;;;;5.13;73.86;96212.19;5029795;28;20037;-78
2022/11/14 03:31:11;;;;;;;109.78;48.67;;;;;;;5.42;73.83;96254.44;5039040;28;20037;-77
2022/11/14 03:33:37;;;;;;;119.43;48.50;;;;;;;5.70;73.62;96301.38;5026551;28;20080;-76
2022/11/14 03:36:03;;;;;;;108.03;45.72;;;;;;;5.53;73.64;96274.00;5027852;28;20103;-77
2022/11/14 03:38:29;;;;;;;112.85;47.53;;;;;;;5.66;73.23;96296.75;5045316;28;20059;-77
2022/11/14 03:40:57;;;;;;;117.13;48.03;;;;;;;4.40;74.03;96094.44;5040412;28;20052;-77
2022/11/14 03:43:22;;;;;;;105.03;45.92;;;;;;;5.22;73.76;96209.06;5041683;28;20063;-77
2022/11/14 03:45:48;;;;;;;104.50;45.25;;;;;;;4.99;72.92;96179.94;5069874;28;20542;-77
2022/11/14 03:48:13;;;;;;;108.65;46.83;;;;;;;4.99;73.54;96195.69;5036105;28;20036;-77
2022/11/14 03:50:40;;;;;;;123.80;45.67;;;;;;;5.24;74.45;96235.16;5024797;28;20494;-78
2022/11/14 03:53:06;;;;;;;121.50;45.10;;;;;;;5.60;75.45;96294.97;5049052;28;20201;-77
2022/11/14 03:55:31;;;;;;;148.82;47.80;;;;;;;4.78;75.58;96181.09;5031591;28;20032;-78
2022/11/14 03:57:57;;;;;;;128.82;46.85;;;;;;;5.33;76.11;96257.56;5051953;28;20044;-77
2022/11/14 04:00:22;;;;;;;156.52;48.28;;;;;;;4.97;75.99;96190.66;5048110;28;20790;-77
2022/11/14 04:02:48;;;;;;;142.57;48.03;;;;;;;5.45;76.16;96263.72;5053285;28;20068;-76
2022/11/14 04:05:13;;;;;;;140.63;47.80;;;;;;;5.63;75.95;96284.84;5045630;28;20756;-77
2022/11/14 04:07:39;;;;;;;137.18;48.20;;;;;;;5.25;75.76;96224.44;5023579;28;20360;-77
2022/11/14 04:10:05;;;;;;;137.00;42.22;;;;;;;5.42;75.84;96251.78;5055901;28;20423;-78
2022/11/14 04:12:31;;;;;;;129.93;41.22;;;;;;;5.32;76.51;96233.09;5037208;28;20494;-79
2022/11/14 04:14:57;;;;;;;116.20;41.67;;;;;;;5.68;76.19;96279.72;5045284;28;20044;-78
2022/11/14 04:17:22;;;;;;;164.15;43.10;;;;;;;5.48;76.54;96252.78;5039491;28;20041;-79
2022/11/14 04:19:48;;;;;;;112.80;38.00;;;;;;;5.30;75.86;96215.91;5057972;28;20052;-79
2022/11/14 04:22:13;;;;;;;109.60;36.33;;;;;;;5.38;76.26;96219.06;5043299;28;20044;-79
2022/11/14 04:24:38;;;;;;;95.07;34.30;;;;;;;4.78;75.13;96138.25;5046000;28;20766;-79
2022/11/14 04:27:04;;;;;;;111.88;35.53;;;;;;;5.64;75.15;96283.03;5057896;28;20040;-79
2022/11/14 04:29:29;;;;;;;93.00;35.38;;;;;;;5.40;75.26;96240.72;5039856;28;20159;-79
2022/11/14 04:31:54;;;;;;;98.82;33.83;;;;;;;5.43;75.24;96237.63;5058118;28;20798;-79
2022/11/14 04:34:20;;;;;;;79.78;34.00;;;;;;;5.42;75.57;96245.72;5050058;28;20049;-78
2022/11/14 04:36:45;;;;;;;73.82;32.67;;;;;;;5.49;75.04;96243.06;5024922;28;20490;-77
2022/11/14 04:39:11;;;;;;;78.07;30.77;;;;;;;5.53;75.47;96245.03;5034235;28;20048;-77
2022/11/14 04:41:36;;;;;;;84.05;31.95;;;;;;;5.16;74.28;96222.28;5039072;28;20048;-77
2022/11/14 04:44:02;;;;;;;73.00;28.45;;;;;;;5.16;74.90;96209.94;5061389;28;20125;-77
2022/11/14 04:46:27;;;;;;;66.47;29.90;;;;;;;5.29;74.34;96225.59;5037380;28;20046;-77
2022/11/14 04:48:53;;;;;;;60.92;27.67;;;;;;;5.60;75.29;96276.56;5043971;28;20063;-77
2022/11/14 04:51:18;;;;;;;63.67;28.92;;;;;;;5.09;74.33;96190.78;5026174;28;20037;-77
2022/11/14 04:53:43;;;;;;;57.42;27.50;;;;;;;5.25;74.62;96224.44;5043917;28;20048;-77
2022/11/14 04:56:09;;;;;;;57.78;27.20;;;;;;;5.12;74.42;96211.38;5038249;28;20143;-77
2022/11/14 04:58:34;;;;;;;67.30;29.73;;;;;;;5.16;74.34;96209.94;5049589;28;20086;-77
2022/11/14 05:01:07;;;;;;;56.95;26.95;;;;;;;5.59;74.38;96277.56;5058556;28;20067;-77
2022/11/14 05:03:32;;;;;;;54.95;27.23;;;;;;;5.40;73.85;96242.53;5029436;28;20035;-77
2022/11/14 05:06:01;;;;;;;58.58;28.55;;;;;;;4.91;74.16;96182.81;5060261;28;20083;-77
2022/11/14 05:08:26;;;;;;;57.30;26.75;;;;;;;5.36;74.11;96263.19;5061049;28;20135;-77
2022/11/14 05:10:52;;;;;;;54.88;27.42;;;;;;;5.54;73.93;96278.22;5055084;28;20097;-78
2022/11/14 05:13:17;;;;;;;56.72;28.45;;;;;;;5.22;74.11;96232.75;5054449;28;20052;-78
2022/11/14 05:15:43;;;;;;;64.35;27.92;;;;;;;5.13;73.56;96214.81;5054176;28;20129;-78
2022/11/14 05:18:08;;;;;;;58.80;28.40;;;;;;;4.52;73.21;96118.19;5029859;28;20079;-77
2022/11/14 05:20:33;;;;;;;52.47;26.65;;;;;;;5.15;73.43;96232.00;5035573;28;20045;-78
2022/11/14 05:22:59;;;;;;;58.13;26.83;;;;;;;4.90;73.52;96199.59;5051409;28;20044;-78
2022/11/14 05:25:25;;;;;;;52.20;23.80;;;;;;;5.39;73.57;96294.34;5051604;28;20037;-77
2022/11/14 05:27:50;;;;;;;50.15;25.33;;;;;;;4.95;73.44;96218.19;5015563;28;20052;-78
2022/11/14 05:30:16;;;;;;;44.83;23.83;;;;;;;5.50;72.60;96302.53;5030411;28;20044;-78
2022/11/14 05:32:41;;;;;;;57.83;25.15;;;;;;;4.70;72.78;96173.47;5024617;28;20063;-78
2022/11/14 05:35:08;;;;;;;58.78;25.98;;;;;;;4.65;72.56;96168.06;5048254;28;20043;-78
2022/11/14 05:37:34;;;;;;;53.33;25.08;;;;;;;5.31;72.08;96268.28;5062381;28;20044;-78
2022/11/14 05:39:59;;;;;;;60.92;24.73;;;;;;;5.00;72.58;96226.22;5044688;28;20090;-78
2022/11/14 05:42:26;;;;;;;50.50;25.05;;;;;;;4.74;71.90;96186.97;5034737;28;20415;-78
2022/11/14 05:44:52;;;;;;;62.65;23.70;;;;;;;5.38;71.90;96297.16;5044552;28;20498;-78
2022/11/14 05:47:17;;;;;;;48.45;23.85;;;;;;;5.28;72.72;96294.19;5045607;28;20043;-79
2022/11/14 05:49:42;;;;;;;49.58;23.02;;;;;;;4.91;72.18;96241.44;5044203;28;20116;-78
2022/11/14 05:52:08;;;;;;;49.20;24.48;;;;;;;5.36;72.27;96301.84;5042333;28;20165;-79
2022/11/14 05:54:33;;;;;;;61.10;26.48;;;;;;;5.21;73.22;96303.97;5045585;28;20047;-81
2022/11/14 05:56:59;;;;;;;52.15;24.02;;;;;;;4.75;73.36;96233.25;5055975;28;20131;-79
2022/11/14 05:59:24;;;;;;;51.20;24.60;;;;;;;4.63;73.84;96215.56;5055739;28;20075;-79
2022/11/14 06:01:50;;;;;;;53.17;25.45;;;;;;;4.82;73.81;96234.84;5045862;28;20085;-79
2022/11/14 06:04:15;;;;;;;55.67;24.98;;;;;;;4.77;73.47;96211.00;5052038;28;20078;-79
2022/11/14 06:06:40;;;;;;;53.70;24.27;;;;;;;5.39;72.79;96307.50;5039585;28;20048;-79
2022/11/14 06:09:06;;;;;;;42.15;21.05;;;;;;;5.37;72.87;96309.53;5011986;28;20050;-80
2022/11/14 06:11:33;;;;;;;46.03;21.85;;;;;;;5.33;72.69;96310.97;5048364;28;20048;-79
2022/11/14 06:13:58;;;;;;;46.03;23.05;;;;;;;4.70;72.37;96209.44;5051318;28;20036;-78
2022/11/14 06:16:24;;;;;;;48.33;22.35;;;;;;;5.07;72.22;96276.13;5026937;28;20105;-78
2022/11/14 06:18:53;;;;;;;46.33;23.33;;;;;;;5.16;72.65;96282.75;5046712;28;20040;-80
2022/11/14 06:21:20;;;;;;;50.90;23.45;;;;;;;4.89;72.83;96232.16;5040983;28;20048;-79
2022/11/14 06:23:47;;;;;;;49.47;23.40;;;;;;;5.21;73.20;96275.84;5045585;28;20040;-78
2022/11/14 06:26:24;;;;;;;52.75;23.60;;;;;;;4.99;72.65;96235.94;5031339;28;20040;-79
2022/11/14 06:28:52;;;;;;;58.70;25.55;;;;;;;5.48;72.79;96318.56;5031910;28;20047;-79
2022/11/14 06:31:19;;;;;;;55.28;24.15;;;;;;;5.17;72.55;96265.97;5042072;28;20034;-79
2022/11/14 06:33:45;;;;;;;61.65;24.73;;;;;;;5.47;72.52;96314.31;5056125;28;20944;-79
2022/11/14 06:36:11;;;;;;;58.17;24.10;;;;;;;5.12;72.88;96258.69;5033712;28;20817;-79
2022/11/14 06:38:38;;;;;;;56.78;24.55;;;;;;;5.29;72.98;96280.03;5048255;28;20040;-79
2022/11/14 06:41:11;;;;;;;55.17;24.33;;;;;;;5.49;73.33;96314.91;5054164;28;20048;-80
2022/11/14 06:43:38;;;;;;;54.33;24.42;;;;;;;5.31;73.37;96284.06;5036621;28;20717;-79
2022/11/14 06:46:05;;;;;;;52.53;24.02;;;;;;;5.27;73.07;96272.34;5035011;28;20072;-80
2022/11/14 06:48:31;;;;;;;46.53;22.35;;;;;;;5.55;73.73;96315.88;5031643;28;20354;-78
2022/11/14 06:50:58;;;;;;;51.15;24.17;;;;;;;5.28;73.52;96271.34;5048351;28;20709;-78
2022/11/14 06:53:24;;;;;;;57.15;25.90;;;;;;;4.68;73.41;96161.53;5052921;28;20151;-79
2022/11/14 06:55:54;;;;;;;57.08;25.92;;;;;;;5.49;73.48;96285.16;5056626;28;20134;-79
2022/11/14 06:58:20;;;;;;;62.33;25.52;;;;;;;5.05;73.48;96195.66;5031751;28;20037;-79
2022/11/14 07:00:46;;;;;;;62.92;27.50;;;;;;;5.77;73.03;96302.13;5048130;28;20043;-81
2022/11/14 07:03:11;;;;;;;48.47;24.85;;;;;;;5.73;73.24;96303.56;5026206;28;20048;-78
2022/11/14 07:05:36;;;;;;;51.85;26.58;;;;;;;5.44;73.06;96233.97;5038234;28;20121;-78
2022/11/14 07:08:02;;;;;;;56.10;25.90;;;;;;;5.76;73.14;96271.56;5041711;28;20115;-78
2022/11/14 07:10:29;;;;;;;58.85;27.40;;;;;;;5.93;72.75;96298.19;5035930;28;20056;-81
2022/11/14 07:12:54;;;;;;;56.92;27.60;;;;;;;5.60;72.74;96239.72;5043888;28;20636;-79
2022/11/14 07:15:19;;;;;;;50.08;25.27;;;;;;;5.46;72.65;96217.19;5026741;28;20048;-79
2022/11/14 07:17:47;;;;;;;51.10;24.25;;;;;;;5.31;72.73;96185.94;5042237;28;20028;-80
2022/11/14 07:20:14;;;;;;;49.28;25.23;;;;;;;6.13;73.00;96290.06;5023985;28;20033;-80
2022/11/14 07:22:40;;;;;;;48.10;24.27;;;;;;;6.18;71.84;96298.13;5027979;28;20506;-79
2022/11/14 07:25:05;;;;;;;48.22;24.58;;;;;;;6.28;71.92;96301.06;5025124;28;21365;-79
2022/11/14 07:27:31;;;;;;;49.85;25.25;;;;;;;6.13;71.26;96271.63;5045089;28;20036;-77
2022/11/14 07:29:56;;;;;;;55.17;26.50;;;;;;;5.65;71.19;96189.88;5021251;28;20036;-78
2022/11/14 07:32:22;;;;;;;58.85;29.00;;;;;;;6.25;71.19;96277.00;5039825;28;20136;-78
2022/11/14 07:34:47;;;;;;;54.30;27.17;;;;;;;5.61;71.85;96186.88;5032083;28;20048;-79
2022/11/14 07:37:12;;;;;;;53.45;26.40;;;;;;;6.38;71.32;96295.28;5034944;28;20041;-78
2022/11/14 07:39:38;;;;;;;56.33;27.75;;;;;;;5.91;70.69;96215.97;5055138;28;20036;-79
2022/11/14 07:42:03;;;;;;;56.05;27.17;;;;;;;6.36;70.42;96260.44;5050330;28;20045;-79
2022/11/14 07:44:29;;;;;;;56.08;27.17;;;;;;;6.27;70.88;96259.13;5055695;28;20044;-79
2022/11/14 07:46:54;;;;;;;60.53;29.42;;;;;;;5.98;70.95;96200.09;5052771;28;20052;-79
2022/11/14 07:49:19;;;;;;;56.08;28.27;;;;;;;5.97;70.66;96188.75;5046206;28;20047;-78
2022/11/14 07:51:45;;;;;;;76.80;28.38;;;;;;;6.65;70.65;96283.41;5054320;28;20029;-78
2022/11/14 07:54:10;;;;;;;58.15;28.35;;;;;;;6.28;70.60;96237.84;5021887;28;20036;-79
2022/11/14 07:56:36;;;;;;;52.42;27.73;;;;;;;6.31;70.25;96252.41;5021591;28;20090;-78
2022/11/14 07:59:02;;;;;;;54.47;29.10;;;;;;;5.62;70.21;96164.00;5024901;28;20040;-78
2022/11/14 08:01:27;;;;;;;57.30;28.90;;;;;;;6.04;70.53;96204.47;5049408;28;20046;-80
2022/11/14 08:03:52;;;;;;;59.92;31.15;;;;;;;6.32;69.98;96262.72;5047501;28;20040;-81
2022/11/14 08:06:18;;;;;;;53.45;28.20;;;;;;;6.58;70.30;96288.75;5051695;28;20048;-80
2022/11/14 08:08:44;;;;;;;66.72;32.63;;;;;;;6.54;69.66;96279.69;5049110;28;20037;-80
2022/11/14 08:11:10;;;;;;;54.00;29.40;;;;;;;5.66;69.94;96146.72;5010432;28;20129;-79
2022/11/14 08:13:35;;;;;;;64.88;30.42;;;;;;;6.40;70.35;96235.28;5042183;28;20041;-78
2022/11/14 08:16:09;;;;;;;59.70;30.55;;;;;;;6.48;69.67;96227.06;5049897;28;20051;-79
2022/11/14 08:18:35;;;;;;;52.45;28.10;;;;;;;6.83;69.32;96279.94;5034711;28;20060;-79
2022/11/14 08:21:04;;;;;;;55.85;28.98;;;;;;;6.75;69.80;96278.41;5018643;28;20036;-80
2022/11/14 08:23:29;;;;;;;55.90;29.58;;;;;;;6.58;69.27;96225.50;5057939;28;20913;-79
2022/11/14 08:25:57;;;;;;;64.68;32.72;;;;;;;6.92;69.50;96274.13;5027973;28;20044;-79
2022/11/14 08:28:23;;;;;;;61.70;31.27;;;;;;;6.45;69.42;96222.22;5049893;28;20044;-78
2022/11/14 08:30:49;;;;;;;59.20;30.58;;;;;;;6.28;69.56;96179.88;5028774;28;20493;-79
2022/11/14 08:33:15;;;;;;;61.50;32.05;;;;;;;6.40;69.38;96190.47;5050520;28;20037;-79
2022/11/14 08:35:40;;;;;;;70.18;34.00;;;;;;;6.92;69.92;96268.06;5036614;28;20180;-78
2022/11/14 08:38:06;;;;;;;68.55;31.38;;;;;;;6.60;69.44;96191.03;5029592;28;20551;-80
2022/11/14 08:40:31;;;;;;;69.63;33.45;;;;;;;6.58;69.67;96185.16;5046922;28;20040;-79
2022/11/14 08:43:01;;;;;;;64.13;31.95;;;;;;;7.04;69.71;96262.81;5037656;28;20545;-78
2022/11/14 08:45:27;;;;;;;65.65;34.53;;;;;;;7.23;69.40;96267.00;5031954;28;20104;-77
2022/11/14 08:47:52;;;;;;;69.53;34.17;;;;;;;7.36;69.01;96253.59;5034599;28;20621;-78
2022/11/14 08:50:18;;;;;;;66.85;33.70;;;;;;;6.88;68.96;96158.78;5049702;28;20159;-80
2022/11/14 08:52:49;;;;;;;64.85;33.80;;;;;;;7.07;69.03;96185.88;5044417;28;20058;-77
2022/11/14 08:55:14;;;;;;;69.73;34.23;;;;;;;7.06;69.01;96184.28;5037341;28;20048;-77
2022/11/14 08:57:40;;;;;;;74.28;34.88;;;;;;;7.29;69.05;96214.13;5040334;28;20806;-83
2022/11/14 09:00:06;;;;;;;70.18;35.53;;;;;;;7.23;68.84;96166.75;5036302;28;20064;-79
2022/11/14 09:02:31;;;;;;;82.72;39.03;;;;;;;7.24;68.55;96171.81;5014660;28;20116;-79
2022/11/14 09:04:57;;;;;;;84.32;43.63;;;;;;;7.49;68.20;96202.44;5041741;28;20051;-80
2022/11/14 09:07:22;;;;;;;96.53;45.45;;;;;;;7.86;67.97;96235.50;5040513;28;20060;-78
2022/11/14 09:09:47;;;;;;;101.13;47.25;;;;;;;7.52;68.08;96167.69;5024928;28;20048;-78
2022/11/14 09:12:13;;;;;;;89.60;43.95;;;;;;;7.86;67.86;96201.16;5044262;28;20032;-79
2022/11/14 09:14:39;;;;;;;84.13;42.67;;;;;;;7.69;67.57;96198.44;5031279;28;20127;-79
2022/11/14 09:17:04;;;;;;;78.90;39.28;;;;;;;7.02;67.43;96065.22;5027031;28;20152;-79
2022/11/14 09:19:29;;;;;;;81.25;40.92;;;;;;;7.68;67.12;96138.75;5053947;28;20095;-79
2022/11/14 09:21:55;;;;;;;92.07;43.28;;;;;;;7.96;66.76;96166.25;5035366;28;20048;-79
2022/11/14 09:24:20;;;;;;;85.40;45.13;;;;;;;8.16;67.16;96213.44;5045395;28;20040;-78
2022/11/14 09:26:48;;;;;;;94.00;46.10;;;;;;;7.75;66.52;96131.50;5048073;28;20040;-79
2022/11/14 09:29:14;;;;;;;86.47;44.60;;;;;;;7.77;66.23;96098.78;5043346;28;20062;-79
2022/11/14 09:31:40;;;;;;;87.13;44.05;;;;;;;8.27;65.99;96162.38;5047844;28;20041;-80
2022/11/14 09:34:05;;;;;;;87.15;42.30;;;;;;;8.21;65.82;96153.56;5052281;28;20055;-79
2022/11/14 09:36:30;;;;;;;80.80;42.05;;;;;;;8.28;66.90;96211.56;5041564;28;20078;-79
2022/11/14 09:38:56;;;;;;;98.93;44.08;;;;;;;8.04;66.57;96132.34;5043061;28;20423;-80
2022/11/14 09:41:25;;;;;;;90.28;44.33;;;;;;;8.56;66.75;96208.97;5031826;28;20106;-79
2022/11/14 09:44:09;;;;;;;85.82;43.25;;;;;;;8.56;65.30;96192.31;5027403;28;20108;-79
2022/11/14 09:46:48;;;;;;;93.97;45.65;;;;;;;8.11;65.73;96164.72;5043310;28;20068;-78
2022/11/14 09:49:53;;;;;;;97.15;48.10;;;;;;;8.67;65.37;96205.50;5027874;28;20048;-79
2022/11/14 09:52:18;;;;;;;92.72;44.03;;;;;;;8.90;65.13;96200.13;4970477;28;20046;-79
2022/11/14 09:55:11;;;;;;;97.78;47.83;;;;;;;8.66;65.81;96193.31;5022965;28;20048;-78
2022/11/14 09:57:39;;;;;;;104.32;48.67;;;;;;;8.54;64.92;96120.38;5023976;28;20040;-79
2022/11/14 10:00:13;;;;;;;106.75;51.28;;;;;;;8.83;64.13;96169.56;5039129;28;20900;-78
2022/11/14 10:02:46;;;;;;;97.70;46.40;;;;;;;8.97;64.23;96188.56;5023879;28;20043;-80
2022/11/14 10:05:35;;;;;;;97.20;48.47;;;;;;;9.14;63.23;96184.09;5042019;28;20047;-79
2022/11/14 10:08:19;;;;;;;107.10;51.45;;;;;;;9.12;63.95;96170.31;5023880;28;20060;-81
2022/11/14 10:10:47;;;;;;;92.68;46.90;;;;;;;9.17;63.74;96170.38;5029431;28;20044;-78
2022/11/14 10:13:24;;;;;;;98.55;48.17;;;;;;;9.64;63.34;96163.69;5039577;28;20047;-79
2022/11/14 10:15:57;;;;;;;98.63;48.90;;;;;;;9.54;63.17;96086.75;5032669;28;20055;-78
2022/11/14 10:18:37;;;;;;;91.32;46.05;;;;;;;10.28;61.96;96160.59;5048998;28;20051;-79
2022/11/14 10:21:18;;;;;;;97.53;48.50;;;;;;;10.37;61.58;96164.41;5022910;28;20908;-79
2022/11/14 10:23:55;;;;;;;95.03;45.78;;;;;;;10.61;59.44;96149.81;5044726;28;20054;-78
2022/11/14 10:26:28;;;;;;;93.95;44.60;;;;;;;11.13;59.30;96152.72;5031759;28;21045;-81
2022/11/14 10:29:26;;;;;;;81.60;42.75;;;;;;;10.99;58.05;96085.16;5026234;28;20522;-81
2022/11/14 10:32:30;;;;;;;85.00;43.30;;;;;;;11.37;57.59;96129.25;5039445;28;20099;-79
2022/11/14 10:35:14;;;;;;;86.25;43.40;;;;;;;11.67;57.16;96131.34;5040625;28;20048;-83
2022/11/14 10:37:55;;;;;;;77.80;41.60;;;;;;;11.68;56.79;96124.13;5031135;28;20402;-79
2022/11/14 10:40:24;;;;;;;76.55;40.33;;;;;;;10.75;57.19;96010.44;5028596;28;20120;-82
2022/11/14 10:42:55;;;;;;;85.60;43.58;;;;;;;11.46;56.97;96124.25;5026327;28;20071;-79
2022/11/14 10:45:36;;;;;;;82.82;43.03;;;;;;;11.08;56.43;96061.59;5045947;28;20044;-78
2022/11/14 10:48:09;;;;;;;84.63;43.50;;;;;;;11.47;56.39;96115.25;5036948;28;20059;-78
2022/11/14 10:50:57;;;;;;;82.90;42.88;;;;;;;11.25;57.45;96115.34;5025922;28;20041;-79
2022/11/14 10:53:40;;;;;;;86.10;42.67;;;;;;;10.71;57.39;96021.78;5037149;28;20052;-80
2022/11/14 10:56:10;;;;;;;96.38;47.45;;;;;;;11.11;58.16;96107.03;5026817;28;20166;-79
2022/11/14 10:58:35;;;;;;;89.20;44.08;;;;;;;10.98;58.30;96099.50;5030625;28;20318;-79
2022/11/14 11:01:32;;;;;;;76.72;42.25;;;;;;;11.03;57.76;96072.19;5036108;28;20047;-78
2022/11/14 11:04:28;;;;;;;86.07;42.05;;;;;;;10.77;57.77;96003.00;5045234;28;20078;-78
2022/11/14 11:13:12;;;;;;;89.35;46.30;;;;;;;10.63;58.11;96023.03;5041133;28;20043;-80
2022/11/14 11:15:44;;;;;;;89.82;46.90;;;;;;;10.83;58.35;96065.66;5046545;28;20357;-84
2022/11/14 11:18:32;;;;;;;98.00;47.85;;;;;;;11.11;58.22;96077.03;5029463;28;20041;-84
2022/11/14 11:21:04;;;;;;;88.80;47.22;;;;;;;11.12;58.14;96075.97;5027173;28;20070;-80
2022/11/14 11:23:29;;;;;;;;;;;;;;;10.64;57.93;95949.56;5042535;28;20435;-79
2022/11/14 11:26:16;;;;;;;93.63;49.00;;;;;;;11.76;56.82;96071.34;5018631;28;19935;-79
2022/11/14 11:28:41;;;;;;;88.40;49.45;;;;;;;11.28;56.54;95989.25;5026889;28;20487;-81
2022/11/14 11:31:10;;;;;;;103.78;50.28;;;;;;;11.82;56.19;96066.84;5018798;28;20037;-79